• Join FlightAware (Why Join?)
  • Login
  • US Flag 
01:13AM EDT


 

Airport Tracker/Info


-or-


 

Live Flight TrackerFlight Track Log ✈ N423RA ✈ 21-Sep-2012 ✈ KDLH - KLAR

Flight Track Log - Related Links

Times and Time Zones

All times are in EDT time to prevent confusion due to time zone crossing. See the N423RA flight status page for this flight to view local times or setup timezone preferences in your user account.

Time Position Orientation Groundspeed Altitude Reporting Facility
EDT Latitude Longitude Course Direction KTS MPH feet Rate Location/Type
11:28AM 46.8292 -92.2739 242° Southwest 86 99 3,400  Level Minneapolis Center
11:29AM 46.8147 -92.3139 254° West 89 102 4,100 720 Climbing Minneapolis Center
11:30AM 46.8067 -92.3539 255° West 95 109 4,900 780 Climbing Minneapolis Center
11:31AM 46.7986 -92.3967 245° Southwest 102 117 5,800 780 Climbing Minneapolis Center
11:32AM 46.7875 -92.4311 246° West 100 115 6,600 840 Climbing Minneapolis Center
11:33AM 46.7769 -92.4664 237° Southwest 97 112 7,600 720 Climbing Minneapolis Center
11:34AM 46.7611 -92.5022 254° West 99 114 8,200 240 Climbing Minneapolis Center
11:35AM 46.7489 -92.5639 254° West 120 138 8,100 -60 Descending Minneapolis Center
11:36AM 46.7375 -92.6214 243° Southwest 141 162 8,100  Level Minneapolis Center
11:37AM 46.7194 -92.6731 232° Southwest 143 165 8,200 -60 Climbing Minneapolis Center
11:38AM 46.6947 -92.7194 230° Southwest 145 167 8,000  Descending Minneapolis Center
11:39AM 46.6689 -92.7639 230° Southwest 145 167 8,200  Climbing Minneapolis Center
11:40AM 46.6419 -92.8100 245° Southwest 147 169 8,100 -120 Descending Minneapolis Center
11:41AM 46.6239 -92.8661 247° West 152 175 8,000 -120 Descending Minneapolis Center
11:42AM 46.6050 -92.9294 246° West 147 169 7,900  Descending Minneapolis Center
11:43AM 46.5900 -92.9783 245° Southwest 141 162 8,100 60 Climbing Minneapolis Center
11:45AM 46.5594 -93.0719 250° West 132 152 8,100 -60 Level Minneapolis Center
11:46AM 46.5472 -93.1214 246° West 130 150 8,000  Descending Minneapolis Center
11:47AM 46.5328 -93.1692 232° Southwest 130 150 8,100 60 Climbing Minneapolis Center
11:48AM 46.5100 -93.2114 241° Southwest 133 153 8,200  Climbing Minneapolis Center
11:49AM 46.4881 -93.2683 246° West 134 154 8,200 -240 Level Minneapolis Center
11:50AM 46.4719 -93.3203 245° Southwest 136 157 7,800 -300 Descending Minneapolis Center
11:51AM 46.4553 -93.3731 247° West 141 162 7,600 120 Descending Minneapolis Center
11:53AM 46.4406 -93.4228 244° Southwest 139 160 8,100 240 Climbing Minneapolis Center
11:54AM 46.4247 -93.4692 247° West 135 155 8,100  Level Minneapolis Center
11:55AM 46.4114 -93.5147 242° Southwest 131 151 8,100 -60 Level Minneapolis Center
11:56AM 46.3925 -93.5669 238° Southwest 134 154 8,000  Descending Minneapolis Center
11:57AM 46.3694 -93.6203 251° West 135 155 8,100 120 Climbing Minneapolis Center
11:58AM 46.3583 -93.6667 252° West 130 150 8,300 -120 Climbing Minneapolis Center
11:59AM 46.3456 -93.7231 243° Southwest 133 153 7,900 -240 Descending Minneapolis Center
12:00PM 46.3286 -93.7722 250° West 136 157 7,900 -60 Level Minneapolis Center
12:01PM 46.3161 -93.8228 253° West 135 155 7,800  Descending Minneapolis Center
12:02PM 46.3056 -93.8722 244° Southwest 130 150 8,000 240 Climbing Minneapolis Center
12:03PM 46.2886 -93.9217 251° West 119 137 8,400  Climbing Minneapolis Center
12:04PM 46.2761 -93.9733 231° Southwest 128 147 8,000 -180 Descending Minneapolis Center
12:05PM 46.2525 -94.0156 234° Southwest 131 151 8,100  Climbing Minneapolis Center
12:06PM 46.2317 -94.0575 237° Southwest 131 151 8,000  Descending Minneapolis Center
12:07PM 46.2119 -94.1006 239° Southwest 129 148 8,100 60 Climbing Minneapolis Center
12:08PM 46.1906 -94.1522 243° Southwest 128 147 8,200  Climbing Minneapolis Center
12:09PM 46.1750 -94.1972 247° West 127 146 8,100 -60 Descending Minneapolis Center
12:10PM 46.1608 -94.2461 249° West 129 148 8,100  Level Minneapolis Center
12:11PM 46.1486 -94.2931 256° West 127 146 8,100 -60 Level Minneapolis Center
12:12PM 46.1406 -94.3414 246° West 124 143 8,000  Descending Minneapolis Center
12:13PM 46.1267 -94.3861 245° Southwest 123 142 8,100  Climbing Minneapolis Center
12:14PM 46.1078 -94.4447 241° Southwest 131 151 8,100  Level Minneapolis Center
12:15PM 46.0906 -94.4889 239° Southwest 129 148 8,100  Level Minneapolis Center
12:16PM 46.0719 -94.5331 237° Southwest 129 148 8,100  Level Minneapolis Center
12:17PM 46.0519 -94.5778 241° Southwest 131 151 8,200  Climbing Minneapolis Center
12:18PM 46.0353 -94.6208 239° Southwest 127 146 8,100 -60 Descending Minneapolis Center
12:19PM 46.0133 -94.6742 239° Southwest 128 147 8,100 -60 Level Minneapolis Center
12:20PM 45.9953 -94.7175 242° Southwest 128 147 8,000  Descending Minneapolis Center
12:21PM 45.9783 -94.7642 246° West 129 148 8,100  Climbing Minneapolis Center
12:22PM 45.9636 -94.8111 244° Southwest 129 148 8,000  Descending Minneapolis Center
12:23PM 45.9486 -94.8556 242° Southwest 126 145 8,100  Climbing Minneapolis Center
12:25PM 45.9325 -94.8997 240° Southwest 125 144 8,100  Level Minneapolis Center
12:26PM 45.9111 -94.9533 243° Southwest 128 147 8,100 -60 Level Minneapolis Center
12:27PM 45.8944 -94.9997 246° West 130 150 8,000  Descending Minneapolis Center
12:28PM 45.8797 -95.0467 247° West 130 150 8,100 60 Climbing Minneapolis Center
12:29PM 45.8672 -95.0883 248° West 123 142 8,200  Climbing Minneapolis Center
12:30PM 45.8525 -95.1417 243° Southwest 121 139 8,100  Descending Minneapolis Center
12:31PM 45.8367 -95.1861 226° Southwest 123 142 8,200  Climbing Minneapolis Center
12:32PM 45.8119 -95.2228 242° Southwest 129 148 8,100 -120 Descending Minneapolis Center
12:33PM 45.7947 -95.2689 236° Southwest 132 152 8,000 -60 Descending Minneapolis Center
12:34PM 45.7753 -95.3100 242° Southwest 128 147 8,000  Level Minneapolis Center
12:35PM 45.7600 -95.3506 237° Southwest 122 140 8,100 60 Climbing Minneapolis Center
12:36PM 45.7381 -95.3986 249° West 122 140 8,200  Climbing Minneapolis Center
12:37PM 45.7253 -95.4464 242° Southwest 125 144 8,100 -120 Descending Minneapolis Center
12:38PM 45.7092 -95.4889 244° Southwest 124 143 8,000 -60 Descending Minneapolis Center
12:39PM 45.6939 -95.5344 252° West 126 145 8,000  Level Minneapolis Center
12:40PM 45.6839 -95.5783 256° West 122 140 8,100 -180 Climbing Minneapolis Center
12:41PM 45.6758 -95.6244 253° West 120 138 7,700  Descending Minneapolis Center
12:42PM 45.6644 -95.6781 252° West 119 137 8,100 120 Climbing Minneapolis Center
12:43PM 45.6544 -95.7219 249° West 119 137 8,000 -60 Descending Minneapolis Center
12:44PM 45.6431 -95.7647 235° Southwest 117 135 8,000  Level Minneapolis Center
12:45PM 45.6219 -95.8078 241° Southwest 127 146 8,100 60 Climbing Minneapolis Center
12:46PM 45.6058 -95.8492 247° West 127 146 8,200 -60 Climbing Minneapolis Center
12:47PM 45.5928 -95.8936 243° Southwest 129 148 8,000 -60 Descending Minneapolis Center
12:48PM 45.5731 -95.9494 250° West 134 154 8,100  Climbing Minneapolis Center
12:49PM 45.5619 -95.9931 246° West 128 147 8,100  Level Minneapolis Center
12:50PM 45.5475 -96.0392 248° West 126 145 8,100 -60 Level Minneapolis Center
12:51PM 45.5333 -96.0881 246° West 128 147 8,000  Descending Minneapolis Center
12:52PM 45.5183 -96.1364 228° Southwest 130 150 8,100  Climbing Minneapolis Center
12:53PM 45.4869 -96.1856 241° Southwest 136 157 8,100 -60 Level Minneapolis Center
12:55PM 45.4725 -96.2222 243° Southwest 137 158 8,000 -120 Descending Minneapolis Center
12:56PM 45.4533 -96.2756 242° Southwest 133 153 7,900  Descending Minneapolis Center
12:57PM 45.4358 -96.3222 242° Southwest 133 153 8,000  Climbing Minneapolis Center
12:58PM 45.4183 -96.3683 240° Southwest 132 152 8,000  Level Minneapolis Center
12:59PM 45.4000 -96.4144 235° Southwest 133 153 8,100  Climbing Minneapolis Center
01:00PM 45.3767 -96.4622 239° Southwest 131 151 8,000 -60 Descending Minneapolis Center
01:01PM 45.3606 -96.5008 232° Southwest 124 143 8,000  Level Minneapolis Center
01:02PM 45.3403 -96.5378 232° Southwest 122 140 8,000  Level Minneapolis Center
01:03PM 45.3192 -96.5756 226° Southwest 121 139 8,100  Climbing Minneapolis Center
01:04PM 45.2956 -96.6106 235° Southwest 122 140 8,100 -60 Level Minneapolis Center
01:05PM 45.2769 -96.6486 242° Southwest 120 138 8,000  Descending Minneapolis Center
01:06PM 45.2575 -96.7000 252° West 123 142 8,200 60 Climbing Minneapolis Center
01:07PM 45.2481 -96.7414 244° Southwest 118 136 8,200 -120 Level Minneapolis Center
01:08PM 45.2342 -96.7811 245° Southwest 114 131 8,000 -180 Descending Minneapolis Center
01:09PM 45.2197 -96.8244 241° Southwest 117 135 7,900  Descending Minneapolis Center
01:10PM 45.2031 -96.8678 249° West 120 138 8,000  Climbing Minneapolis Center
01:11PM 45.1881 -96.9225 242° Southwest 123 142 8,000 60 Level Minneapolis Center
01:12PM 45.1728 -96.9628 243° Southwest 121 139 8,200  Climbing Minneapolis Center
01:13PM 45.1586 -97.0028 239° Southwest 119 137 8,100 -60 Descending Minneapolis Center
01:14PM 45.1414 -97.0436 233° Southwest 118 136 8,100  Level Minneapolis Center
01:15PM 45.1194 -97.0844 241° Southwest 122 140 8,100 -180 Level Minneapolis Center
01:16PM 45.1011 -97.1308 246° West 127 146 7,800 -60 Descending Minneapolis Center
01:17PM 45.0842 -97.1842 243° Southwest 128 147 8,000 120 Climbing Minneapolis Center
01:18PM 45.0706 -97.2222 247° West 122 140 8,100  Climbing Minneapolis Center
01:19PM 45.0581 -97.2644 248° West 118 136 8,100 -120 Level Minneapolis Center
01:20PM 45.0461 -97.3061 244° Southwest 117 135 7,900 -180 Descending Minneapolis Center
01:21PM 45.0311 -97.3500 244° Southwest 119 137 7,800 -180 Descending Minneapolis Center
01:22PM 45.0150 -97.3967 235° Southwest 123 142 7,600 120 Descending Minneapolis Center
01:23PM 44.9900 -97.4472 231° Southwest 126 145 8,100 240 Climbing Minneapolis Center
01:25PM 44.9669 -97.4872 233° Southwest 128 147 8,100  Level Minneapolis Center
01:26PM 44.9464 -97.5253 236° Southwest 127 146 8,100  Level Minneapolis Center
01:27PM 44.9281 -97.5642 241° Southwest 124 143 8,100 -120 Level Minneapolis Center
01:28PM 44.9106 -97.6083 247° West 125 144 7,900 -120 Descending Minneapolis Center
01:29PM 44.8936 -97.6658 247° West 130 150 7,900  Level Minneapolis Center
01:30PM 44.8806 -97.7094 242° Southwest 126 145 7,900  Level Minneapolis Center
01:31PM 44.8642 -97.7528 240° Southwest 124 143 8,000  Climbing Minneapolis Center
01:32PM 44.8467 -97.7958 238° Southwest 125 144 7,900  Descending Minneapolis Center
01:33PM 44.8286 -97.8372 238° Southwest 125 144 8,100 120 Climbing Minneapolis Center
01:34PM 44.8106 -97.8775 245° Southwest 123 142 8,200 -120 Climbing Minneapolis Center
01:35PM 44.7917 -97.9344 242° Southwest 131 151 7,900 -60 Descending Minneapolis Center
01:36PM 44.7744 -97.9794 229° Southwest 131 151 8,100  Climbing Minneapolis Center
01:37PM 44.7503 -98.0183 240° Southwest 132 152 8,000 -60 Descending Minneapolis Center
01:38PM 44.7317 -98.0642 242° Southwest 135 155 8,000  Level Minneapolis Center
01:39PM 44.7147 -98.1092 247° West 133 153 8,000  Level Minneapolis Center
01:40PM 44.7025 -98.1497 243° Southwest 124 143 8,000  Level Minneapolis Center
01:41PM 44.6856 -98.1958 242° Southwest 115 132 8,100  Climbing Minneapolis Center
01:42PM 44.6694 -98.2381 241° Southwest 118 136 8,100  Level Minneapolis Center
01:43PM 44.6522 -98.2817 241° Southwest 123 142 8,100 -120 Level Minneapolis Center
01:44PM 44.6344 -98.3269 238° Southwest 128 147 7,900  Descending Minneapolis Center
01:45PM 44.6131 -98.3747 246° West 128 147 8,200  Climbing Minneapolis Center
01:46PM 44.5994 -98.4172 242° Southwest 124 143 8,000 -60 Descending Minneapolis Center
01:47PM 44.5836 -98.4594 242° Southwest 123 142 8,100  Climbing Minneapolis Center
01:48PM 44.5667 -98.5042 239° Southwest 125 144 8,000 -60 Descending Minneapolis Center
01:49PM 44.5478 -98.5489 242° Southwest 129 148 8,000 -60 Level Minneapolis Center
01:50PM 44.5306 -98.5944 227° Southwest 131 151 7,900  Descending Minneapolis Center
01:51PM 44.5008 -98.6392 243° Southwest 136 157 8,000  Climbing Minneapolis Center
01:52PM 44.4853 -98.6811 235° Southwest 124 143 8,000  Level Minneapolis Center
01:53PM 44.4647 -98.7217 241° Southwest 125 144 8,100  Climbing Minneapolis Center
01:55PM 44.4464 -98.7678 247° West 131 151 8,000 -60 Descending Minneapolis Center
01:56PM 44.4325 -98.8128 240° Southwest 130 150 8,000  Level Minneapolis Center
01:57PM 44.4150 -98.8553 243° Southwest 129 148 8,100 -60 Climbing Minneapolis Center
01:58PM 44.3958 -98.9086 239° Southwest 128 147 7,900 -60 Descending Minneapolis Center
01:59PM 44.3769 -98.9528 240° Southwest 128 147 8,000  Climbing Minneapolis Center
02:00PM 44.3592 -98.9950 238° Southwest 128 147 8,000  Level Minneapolis Center
02:01PM 44.3403 -99.0367 241° Southwest 127 146 8,000  Level Minneapolis Center
02:02PM 44.3233 -99.0794 243° Southwest 127 146 8,100 -60 Climbing Minneapolis Center
02:03PM 44.3075 -99.1233 242° Southwest 127 146 7,900 -180 Descending Minneapolis Center
02:04PM 44.2858 -99.1797 224° Southwest 130 150 7,800  Descending Minneapolis Center
02:05PM 44.2578 -99.2181 245° Southwest 141 162 7,900 120 Climbing Minneapolis Center
02:06PM 44.2428 -99.2625 243° Southwest 134 154 8,100 60 Climbing Minneapolis Center
02:07PM 44.2267 -99.3067 239° Southwest 131 151 8,100 -120 Level Minneapolis Center
02:08PM 44.2075 -99.3503 239° Southwest 131 151 7,900 -120 Descending Minneapolis Center
02:09PM 44.1881 -99.3947 239° Southwest 134 154 7,900 60 Level Minneapolis Center
02:10PM 44.1694 -99.4372 236° Southwest 134 154 8,100  Climbing Minneapolis Center
02:11PM 44.1472 -99.4831 238° Southwest 127 146 7,900 -60 Descending Minneapolis Center
02:12PM 44.1300 -99.5211 241° Southwest 123 142 8,000 120 Climbing Minneapolis Center
02:13PM 44.1139 -99.5622 244° Southwest 121 139 8,200  Climbing Minneapolis Center
02:14PM 44.0981 -99.6072 244° Southwest 122 140 8,000  Descending Minneapolis Center
02:15PM 44.0814 -99.6547 238° Southwest 128 147 8,200 60 Climbing Minneapolis Center
02:16PM 44.0614 -99.6989 239° Southwest 131 151 8,200 -60 Level Minneapolis Center
02:17PM 44.0381 -99.7519 246° West 133 153 8,100 -180 Descending Minneapolis Center
02:18PM 44.0231 -99.7994 245° Southwest 133 153 7,900 -60 Descending Minneapolis Center
02:19PM 44.0083 -99.8433 241° Southwest 131 151 8,000 60 Climbing Minneapolis Center
02:20PM 43.9919 -99.8847 230° Southwest 127 146 8,100 -60 Climbing Minneapolis Center
02:21PM 43.9689 -99.9225 242° Southwest 127 146 7,900  Descending Minneapolis Center
02:22PM 43.9528 -99.9650 243° Southwest 125 144 8,200 60 Climbing Minneapolis Center
02:25PM 43.9189 -100.0586 241° Southwest 123 142 8,100 -180 Descending Minneapolis Center
02:26PM 43.9014 -100.1031 245° Southwest 125 144 7,800  Descending Minneapolis Center
02:27PM 43.8867 -100.1478 242° Southwest 126 145 8,200 120 Climbing Minneapolis Center
02:28PM 43.8700 -100.1911 232° Southwest 127 146 8,100 -240 Descending Minneapolis Center
02:29PM 43.8478 -100.2303 236° Southwest 129 148 7,800 -120 Descending Minneapolis Center
02:30PM 43.8281 -100.2708 236° Southwest 129 148 7,900 120 Climbing Minneapolis Center
02:31PM 43.8044 -100.3197 237° Southwest 128 147 8,100 180 Climbing Minneapolis Center
02:32PM 43.7864 -100.3581 244° Southwest 125 144 8,300 -240 Climbing Minneapolis Center
02:33PM 43.7706 -100.4025 241° Southwest 124 143 7,700 -180 Descending Minneapolis Center
02:34PM 43.7539 -100.4433 254° West 125 144 8,000 180 Climbing Minneapolis Center
02:35PM 43.7450 -100.4867 240° Southwest 116 133 8,100  Climbing Minneapolis Center
02:36PM 43.7278 -100.5286 238° Southwest 125 144 8,000  Descending Minneapolis Center
02:37PM 43.7061 -100.5772 240° Southwest 124 143 8,100 60 Climbing Minneapolis Center
02:38PM 43.6889 -100.6183 240° Southwest 124 143 8,200  Climbing Minneapolis Center
02:39PM 43.6708 -100.6608 228° Southwest 124 143 8,200 -60 Level Minneapolis Center
02:40PM 43.6453 -100.6997 231° Southwest 131 151 8,100 -60 Descending Minneapolis Center
02:41PM 43.6236 -100.7372 242° Southwest 131 151 8,100  Level Denver Center
02:42PM 43.6081 -100.7783 243° Southwest 126 145 8,100 -60 Level Denver Center
02:43PM 43.5925 -100.8200 239° Southwest 123 142 8,000 60 Descending Denver Center
02:44PM 43.5750 -100.8594 239° Southwest 123 142 8,300 120 Climbing Denver Center
02:45PM 43.5583 -100.8972 233° Southwest 121 139 8,300 -120 Level Denver Center
02:46PM 43.5306 -100.9486 241° Southwest 135 155 8,100 -120 Descending Denver Center
02:47PM 43.5133 -100.9919 246° West 134 154 8,100  Level Denver Center
02:48PM 43.4992 -101.0367 236° Southwest 132 152 8,100  Level Denver Center
02:49PM 43.4789 -101.0775 240° Southwest 131 151 8,100 -60 Level Denver Center
02:50PM 43.4617 -101.1183 240° Southwest 127 146 8,000 -60 Descending Denver Center
02:51PM 43.4453 -101.1572 244° Southwest 124 143 8,000  Level Denver Center
02:52PM 43.4275 -101.2069 247° West 120 138 8,100  Climbing Denver Center
02:53PM 43.4142 -101.2500 239° Southwest 120 138 8,100  Level Denver Center
02:54PM 43.3956 -101.2925 240° Southwest 124 143 8,200  Climbing Denver Center
02:55PM 43.3767 -101.3378 230° Southwest 126 145 8,200 180 Level Denver Center
02:58PM 43.3250 -101.4217 237° Southwest 74 85 9,100 360 Climbing Minneapolis Center
02:59PM 43.3094 -101.4542 225° Southwest 96 110 9,600 420 Climbing Minneapolis Center
03:00PM 43.2897 -101.4811 243° Southwest 90 104 10,100 240 Climbing Denver Center
03:01PM 43.2733 -101.5250 225° Southwest 113 130 10,200  Climbing Denver Center
03:02PM 43.2447 -101.5639 236° Southwest 127 146 10,100 -60 Descending Denver Center
03:10PM 43.0892 -101.8781 252° West 100 115 10,000  Descending Denver Center
03:11PM 43.0817 -101.9100 233° Southwest 105 121 10,100 60 Climbing Denver Center
03:13PM 43.0439 -101.9778 243° Southwest 94 108 10,200 -60 Climbing Denver Center
03:14PM 43.0253 -102.0272 247° West 128 147 10,000 -120 Descending Denver Center
03:15PM 43.0131 -102.0675 243° Southwest 125 144 10,000 -60 Level Denver Center
03:16PM 42.9956 -102.1150 238° Southwest 124 143 9,900  Descending Denver Center
03:17PM 42.9778 -102.1533 229° Southwest 124 143 10,100 60 Climbing Denver Center
03:18PM 42.9517 -102.1944 237° Southwest 123 142 10,100 -60 Level Denver Center
03:19PM 42.9294 -102.2417 235° Southwest 140 161 10,000  Descending Denver Center
03:20PM 42.9050 -102.2886 243° Southwest 139 160 10,100 -120 Climbing Denver Center
03:21PM 42.8883 -102.3325 241° Southwest 138 159 9,800 -60 Descending Denver Center
03:22PM 42.8714 -102.3747 234° Southwest 136 157 10,000 180 Climbing Denver Center
03:23PM 42.8475 -102.4197 238° Southwest 133 153 10,200 60 Climbing Denver Center
03:24PM 42.8264 -102.4653 242° Southwest 129 148 10,200 -180 Level Denver Center
03:25PM 42.8072 -102.5142 240° Southwest 142 163 9,900  Descending Denver Center
03:26PM 42.7878 -102.5592 246° West 146 168 10,200 120 Climbing Denver Center
03:27PM 42.7703 -102.6119 238° Southwest 142 163 10,200  Level Denver Center
03:28PM 42.7519 -102.6517 234° Southwest 135 155 10,200 -60 Level Denver Center
03:29PM 42.7272 -102.6983 238° Southwest 133 153 10,100 -120 Descending Denver Center
03:30PM 42.7089 -102.7378 227° Southwest 132 152 10,000  Descending Denver Center
03:31PM 42.6819 -102.7775 233° Southwest 129 148 10,200 120 Climbing Denver Center
03:32PM 42.6608 -102.8153 235° Southwest 130 150 10,300 60 Climbing Denver Center
03:34PM 42.6375 -102.8611 233° Southwest 131 151 10,400 -120 Climbing Denver Center
03:35PM 42.6164 -102.8986 222° Southwest 131 151 10,100 -120 Descending Denver Center
03:36PM 42.5833 -102.9394 232° Southwest 135 155 10,200  Climbing Denver Center
03:37PM 42.5597 -102.9806 235° Southwest 141 162 10,200 -60 Level Denver Center
03:38PM 42.5347 -103.0286 237° Southwest 142 163 10,100  Descending Denver Center
03:39PM 42.5164 -103.0672 237° Southwest 137 158 10,300 360 Climbing Denver Center
03:40PM 42.4978 -103.1056 247° West 122 140 10,900 480 Climbing Denver Center
03:41PM 42.4869 -103.1406 240° Southwest 112 129 11,400 300 Climbing Denver Center
03:42PM 42.4742 -103.1708 231° Southwest 104 120 11,600 120 Climbing Denver Center
03:43PM 42.4542 -103.2044 234° Southwest 100 115 11,700 240 Climbing Denver Center
03:44PM 42.4347 -103.2408 239° Southwest 109 125 12,100 180 Climbing Denver Center
03:45PM 42.4147 -103.2861 241° Southwest 122 140 12,100  Level Denver Center
03:46PM 42.3975 -103.3278 244° Southwest 129 148 12,100 -60 Level Denver Center
03:47PM 42.3797 -103.3764 246° West 130 150 12,000  Descending Denver Center
03:48PM 42.3664 -103.4169 243° Southwest 128 147 12,100 60 Climbing Denver Center
03:49PM 42.3489 -103.4642 241° Southwest 126 145 12,200  Climbing Denver Center
03:50PM 42.3322 -103.5042 235° Southwest 126 145 12,200 -120 Level Denver Center
03:52PM 42.2903 -103.5861 224° Southwest 127 146 11,900  Descending Denver Center
03:53PM 42.2608 -103.6239 244° Southwest 132 152 12,200 120 Climbing Denver Center
03:54PM 42.2458 -103.6647 237° Southwest 128 147 12,200  Level Denver Center
03:55PM 42.2242 -103.7100 243° Southwest 127 146 12,200  Level Denver Center
03:56PM 42.2075 -103.7533 240° Southwest 131 151 12,200 -60 Level Denver Center
03:57PM 42.1894 -103.7947 237° Southwest 133 153 12,100  Descending Denver Center
03:58PM 42.1681 -103.8386 242° Southwest 129 148 12,300  Climbing Denver Center
03:59PM 42.1517 -103.8803 238° Southwest 130 150 12,200 -60 Descending Denver Center
04:00PM 42.1297 -103.9283 221° Southwest 132 152 12,200  Level Denver Center
04:01PM 42.1017 -103.9614 228° Southwest 137 158 12,200 -60 Level Denver Center
04:02PM 42.0736 -104.0028 236° Southwest 139 160 12,100 -60 Descending Denver Center
04:04PM 42.0547 -104.0400 235° Southwest 132 152 12,100 -180 Level Denver Center
04:05PM 42.0308 -104.0858 240° Southwest 131 151 11,800  Descending Denver Center
04:06PM 42.0153 -104.1225 249° West 129 148 12,200 180 Climbing Denver Center
04:07PM 42.0025 -104.1672 236° Southwest 118 136 12,200  Level Denver Center
04:08PM 41.9831 -104.2058 236° Southwest 124 143 12,300 60 Climbing Denver Center
04:09PM 41.9611 -104.2494 247° West 126 145 12,400  Climbing Denver Center
04:10PM 41.9478 -104.2925 231° Southwest 129 148 12,400 -120 Level Denver Center
04:11PM 41.9242 -104.3317 240° Southwest 137 158 12,200 -120 Descending Denver Center
04:12PM 41.9031 -104.3808 239° Southwest 137 158 12,200 -60 Level Denver Center
04:13PM 41.8853 -104.4211 239° Southwest 133 153 12,100  Descending Denver Center
04:14PM 41.8639 -104.4683 230° Southwest 133 153 12,300  Climbing Denver Center
04:15PM 41.8397 -104.5067 244° Southwest 137 158 12,100 -60 Descending Denver Center
04:16PM 41.8222 -104.5547 244° Southwest 134 154 12,200 60 Climbing Denver Center
04:17PM 41.8069 -104.5969 239° Southwest 136 157 12,300  Climbing Denver Center
04:18PM 41.7875 -104.6411 254° West 131 151 12,300  Level Denver Center
04:19PM 41.7778 -104.6861 240° Southwest 127 146 12,300 -60 Level Denver Center
04:20PM 41.7581 -104.7319 262° West 126 145 12,200  Descending Denver Center
04:21PM 41.7539 -104.7706 241° Southwest 111 128 12,300  Climbing Denver Center
04:22PM 41.7339 -104.8197 238° Southwest 134 154 12,300 -60 Level Denver Center
04:23PM 41.7183 -104.8531 239° Southwest 121 139 12,200  Descending Denver Center
04:24PM 41.6986 -104.8964 233° Southwest 121 139 12,300 60 Climbing Denver Center
04:25PM 41.6781 -104.9333 240° Southwest 131 151 12,400 -120 Climbing Denver Center
04:26PM 41.6608 -104.9733 240° Southwest 133 153 12,100 -120 Descending Denver Center
04:27PM 41.6417 -105.0172 244° Southwest 126 145 12,200  Climbing Denver Center
04:28PM 41.6283 -105.0533 238° Southwest 117 135 12,200  Level Denver Center
04:29PM 41.6097 -105.0939 237° Southwest 116 133 12,200  Level Denver Center
04:30PM 41.5919 -105.1303 236° Southwest 119 137 12,300  Climbing Denver Center
04:31PM 41.5719 -105.1700 237° Southwest 117 135 12,300  Level Denver Center
04:32PM 41.5539 -105.2069 232° Southwest 119 137 12,300  Level Denver Center
04:33PM 41.5275 -105.2528 229° Southwest 137 158 12,400 -60 Climbing Denver Center
04:35PM 41.5028 -105.2911 229° Southwest 144 166 12,200 -60 Descending Denver Center
04:36PM 41.4758 -105.3328 240° Southwest 137 158 12,300  Climbing Denver Center
04:37PM 41.4589 -105.3722 238° Southwest 131 151 12,300 -120 Level Denver Center
04:38PM 41.4358 -105.4208 238° Southwest 135 155 12,100 -240 Descending Denver Center